createdAt,value
2018-09-09T00:00:27.915Z,91.72
2018-09-09T00:01:27.903Z,91.81
2018-09-09T00:02:27.908Z,91.81
2018-09-09T00:03:27.875Z,91.24
2018-09-09T00:04:27.863Z,92.19
2018-09-09T00:05:27.861Z,92.10
2018-09-09T00:06:27.839Z,91.96
2018-09-09T00:07:27.828Z,92.34
2018-09-09T00:08:27.809Z,92.24
2018-09-09T00:09:27.797Z,92.44
2018-09-09T00:10:27.783Z,92.15
2018-09-09T00:11:27.767Z,92.05
2018-09-09T00:12:27.758Z,92.15
2018-09-09T00:13:27.741Z,92.05
2018-09-09T00:14:27.726Z,92.05
2018-09-09T00:15:27.714Z,92.44
2018-09-09T00:16:27.702Z,93.35
2018-09-09T00:17:27.688Z,93.06
2018-09-09T00:18:27.678Z,93.15
2018-09-09T00:19:27.658Z,92.48
2018-09-09T00:20:27.646Z,91.81
2018-09-09T00:21:27.631Z,91.72
2018-09-09T00:22:27.618Z,90.75
2018-09-09T00:23:27.605Z,91.05
2018-09-09T00:24:27.589Z,91.62
2018-09-09T00:25:27.573Z,91.52
2018-09-09T00:26:27.567Z,91.52
2018-09-09T00:27:27.551Z,92.39
2018-09-09T00:28:27.536Z,92.39
2018-09-09T00:29:27.522Z,92.48
2018-09-09T00:30:27.507Z,92.48
2018-09-09T00:31:27.493Z,92.39
2018-09-09T00:32:27.479Z,92.39
2018-09-09T00:33:27.471Z,92.29
2018-09-09T00:34:27.456Z,92.58
2018-09-09T00:35:27.440Z,93.40
2018-09-09T00:36:27.427Z,93.92
2018-09-09T00:37:27.412Z,93.21
2018-09-09T00:38:27.398Z,93.44
2018-09-09T00:39:27.385Z,93.44
2018-09-09T00:40:27.371Z,93.40
2018-09-09T00:41:27.358Z,93.82
2018-09-09T00:42:27.343Z,93.40
2018-09-09T00:43:27.331Z,93.21
2018-09-09T00:44:27.314Z,93.30
2018-09-09T00:45:27.312Z,92.54
2018-09-09T00:46:27.290Z,93.11
2018-09-09T00:47:27.274Z,92.72
2018-09-09T00:48:27.260Z,92.44
2018-09-09T00:49:27.247Z,93.30
2018-09-09T00:50:27.235Z,92.54
2018-09-09T00:51:27.222Z,92.72
2018-09-09T00:52:27.206Z,93.30
2018-09-09T00:53:27.192Z,92.72
2018-09-09T00:54:27.180Z,93.40
2018-09-09T00:55:27.168Z,92.44
2018-09-09T00:56:27.150Z,93.11
2018-09-09T00:57:27.136Z,92.96
2018-09-09T00:58:27.134Z,92.54
2018-09-09T00:59:27.109Z,92.77
2018-09-09T01:00:27.104Z,93.25
2018-09-09T01:01:27.080Z,93.59
2018-09-09T01:02:27.067Z,93.11
2018-09-09T01:03:27.061Z,93.59
2018-09-09T01:04:27.043Z,93.54
2018-09-09T01:05:27.030Z,94.12
2018-09-09T01:06:27.012Z,93.92
2018-09-09T01:07:26.999Z,93.82
2018-09-09T01:08:26.986Z,93.97
2018-09-09T01:09:26.979Z,93.40
2018-09-09T01:10:26.963Z,93.59
2018-09-09T01:11:26.944Z,93.88
2018-09-09T01:12:26.928Z,93.68
2018-09-09T01:13:26.917Z,94.45
2018-09-09T01:14:26.903Z,94.54
2018-09-09T01:15:26.897Z,94.74
2018-09-09T01:16:26.874Z,95.31
2018-09-09T01:17:26.861Z,94.64
2018-09-09T01:18:26.850Z,95.21
2018-09-09T01:19:26.833Z,95.98
2018-09-09T01:20:26.818Z,95.60
2018-09-09T01:21:26.803Z,95.60
2018-09-09T01:22:26.793Z,95.46
2018-09-09T01:23:26.780Z,96.32
2018-09-09T01:24:26.763Z,96.61
2018-09-09T01:25:26.751Z,96.51
2018-09-09T01:26:26.734Z,96.70
2018-09-09T01:27:26.723Z,96.89
2018-09-09T01:28:26.715Z,96.99
2018-09-09T01:29:26.693Z,97.18
2018-09-09T01:30:26.679Z,97.09
2018-09-09T01:31:26.668Z,96.03
2018-09-09T01:32:26.652Z,96.13
2018-09-09T01:33:26.637Z,96.70
2018-09-09T01:34:26.622Z,95.84
2018-09-09T01:35:26.610Z,95.56
2018-09-09T01:36:26.604Z,96.22
2018-09-09T01:37:26.581Z,95.56
2018-09-09T01:38:26.570Z,95.56
2018-09-09T01:39:26.554Z,95.56
2018-09-09T01:40:26.542Z,95.75
2018-09-09T01:41:26.524Z,95.07
2018-09-09T01:42:26.520Z,95.65
2018-09-09T01:43:26.502Z,95.56
2018-09-09T01:44:26.495Z,95.56
2018-09-09T01:45:26.469Z,95.65
2018-09-09T01:46:26.457Z,95.94
2018-09-09T01:47:26.442Z,95.56
2018-09-09T01:48:26.430Z,95.65
2018-09-09T01:49:26.421Z,95.94
2018-09-09T01:50:26.407Z,95.75
2018-09-09T01:51:26.396Z,95.17
2018-09-09T01:52:26.372Z,95.17
2018-09-09T01:53:26.357Z,94.59
2018-09-09T01:54:26.342Z,95.07
2018-09-09T01:55:26.329Z,95.46
2018-09-09T01:56:26.317Z,95.36
2018-09-09T01:57:26.301Z,96.03
2018-09-09T01:58:26.287Z,96.03
2018-09-09T01:59:26.273Z,96.08
2018-09-09T02:00:26.259Z,96.22
2018-09-09T02:01:26.244Z,96.13
2018-09-09T02:02:26.230Z,95.84
2018-09-09T02:03:26.217Z,96.22
2018-09-09T02:04:26.207Z,96.61
2018-09-09T02:05:26.189Z,96.61
2018-09-09T02:06:26.187Z,96.80
2018-09-09T02:07:26.160Z,96.61
2018-09-09T02:08:26.146Z,96.42
2018-09-09T02:09:26.143Z,97.18
2018-09-09T02:10:26.118Z,96.80
2018-09-09T02:11:26.105Z,96.61
2018-09-09T02:12:26.092Z,96.70
2018-09-09T02:13:26.076Z,96.56
2018-09-09T02:14:26.062Z,96.37
2018-09-09T02:15:26.050Z,96.08
2018-09-09T02:16:26.038Z,96.66
2018-09-09T02:17:26.021Z,95.60
2018-09-09T02:18:26.006Z,95.31
2018-09-09T02:19:25.991Z,95.31
2018-09-09T02:20:25.982Z,94.64
2018-09-09T02:21:25.965Z,95.41
2018-09-09T02:22:25.951Z,95.41
2018-09-09T02:23:25.937Z,95.21
2018-09-09T02:24:25.922Z,95.36
2018-09-09T02:25:25.908Z,94.64
2018-09-09T02:26:25.894Z,95.26
2018-09-09T02:27:25.879Z,95.17
2018-09-09T02:28:25.868Z,95.65
2018-09-09T02:29:25.861Z,95.51
2018-09-09T02:30:25.837Z,95.51
2018-09-09T02:31:25.823Z,94.93
2018-09-09T02:32:25.809Z,95.03
2018-09-09T02:33:25.796Z,95.70
2018-09-09T02:34:25.785Z,95.70
2018-09-09T02:35:25.768Z,95.60
2018-09-09T02:36:25.764Z,95.60
2018-09-09T02:37:25.741Z,96.03
2018-09-09T02:38:25.730Z,95.65
2018-09-09T02:39:25.722Z,95.65
2018-09-09T02:40:25.698Z,95.46
2018-09-09T02:41:25.684Z,95.46
2018-09-09T02:42:25.670Z,95.65
2018-09-09T02:43:25.658Z,96.13
2018-09-09T02:44:25.657Z,96.61
2018-09-09T02:45:25.629Z,96.61
2018-09-09T02:46:25.615Z,96.42
2018-09-09T02:47:25.601Z,96.51
2018-09-09T02:48:25.587Z,97.18
2018-09-09T02:49:25.574Z,97.18
2018-09-09T02:50:25.558Z,96.89
2018-09-09T02:51:25.547Z,97.56
2018-09-09T02:52:25.531Z,97.56
2018-09-09T02:53:25.523Z,97.47
2018-09-09T02:54:25.504Z,97.95
2018-09-09T02:55:25.489Z,97.85
2018-09-09T02:56:25.477Z,98.24
2018-09-09T02:57:25.461Z,97.85
2018-09-09T02:58:25.448Z,97.38
2018-09-09T02:59:25.435Z,97.38
2018-09-09T03:00:25.417Z,97.56
2018-09-09T03:01:25.407Z,97.85
2018-09-09T03:02:25.392Z,97.85
2018-09-09T03:03:25.379Z,98.38
2018-09-09T03:04:25.384Z,98.47
2018-09-09T03:05:25.346Z,98.67
2018-09-09T03:06:25.335Z,98.72
2018-09-09T03:07:25.320Z,98.05
2018-09-09T03:08:25.305Z,98.24
2018-09-09T03:09:25.290Z,98.14
2018-09-09T03:10:25.278Z,98.52
2018-09-09T03:11:25.265Z,98.52
2018-09-09T03:12:25.257Z,98.24
2018-09-09T03:13:25.238Z,98.24
2018-09-09T03:14:25.220Z,98.24
2018-09-09T03:15:25.205Z,98.24
2018-09-09T03:16:25.188Z,98.05
2018-09-09T03:17:25.180Z,98.05
2018-09-09T03:18:25.165Z,97.95
2018-09-09T03:19:25.161Z,97.56
2018-09-09T03:20:25.136Z,98.24
2018-09-09T03:21:25.118Z,97.66
2018-09-09T03:22:25.106Z,97.56
2018-09-09T03:23:25.091Z,97.66
2018-09-09T03:24:25.077Z,97.66
2018-09-09T03:25:25.070Z,98.14
2018-09-09T03:26:25.048Z,97.76
2018-09-09T03:27:25.034Z,98.28
2018-09-09T03:28:25.066Z,98.33
2018-09-09T03:29:25.012Z,98.24
2018-09-09T03:30:24.996Z,98.86
2018-09-09T03:31:24.979Z,98.43
2018-09-09T03:32:24.971Z,98.43
2018-09-09T03:33:24.949Z,98.43
2018-09-09T03:34:24.935Z,98.43
2018-09-09T03:35:24.922Z,99.05
2018-09-09T03:36:24.907Z,99.15
2018-09-09T03:37:24.893Z,98.96
2018-09-09T03:38:24.879Z,99.82
2018-09-09T03:39:24.872Z,99.53
2018-09-09T03:40:24.853Z,99.15
2018-09-09T03:41:24.836Z,99.63
2018-09-09T03:42:24.823Z,99.91
2018-09-09T03:43:24.807Z,99.91
2018-09-09T03:44:24.793Z,99.91
2018-09-09T03:45:24.779Z,99.43
2018-09-09T03:46:24.765Z,99.63
2018-09-09T03:47:24.754Z,99.72
2018-09-09T03:48:24.734Z,99.91
2018-09-09T03:49:24.726Z,99.72
2018-09-09T03:50:24.709Z,99.15
2018-09-09T03:51:24.692Z,98.76
2018-09-09T03:52:24.678Z,99.01
2018-09-09T03:53:24.663Z,99.10
2018-09-09T03:54:24.651Z,98.72
2018-09-09T03:55:24.640Z,97.95
2018-09-09T03:56:24.626Z,98.24
2018-09-09T03:57:24.608Z,98.14
2018-09-09T03:58:24.595Z,98.33
2018-09-09T03:59:24.578Z,98.33
2018-09-09T04:00:24.566Z,98.33
2018-09-09T04:01:24.549Z,98.72
2018-09-09T04:02:24.535Z,98.43
2018-09-09T04:03:24.528Z,98.43
2018-09-09T04:04:24.506Z,98.24
2018-09-09T04:05:24.493Z,98.05
2018-09-09T04:06:24.477Z,98.33
2018-09-09T04:07:24.464Z,98.14
2018-09-09T04:08:24.454Z,98.14
2018-09-09T04:09:24.436Z,98.14
2018-09-09T04:10:24.425Z,97.76
2018-09-09T04:11:24.408Z,97.85
2018-09-09T04:12:24.397Z,97.66
2018-09-09T04:13:24.382Z,97.47
2018-09-09T04:14:24.364Z,97.76
2018-09-09T04:15:24.350Z,97.76
2018-09-09T04:16:24.336Z,97.18
2018-09-09T04:17:24.326Z,97.85
2018-09-09T04:18:24.308Z,97.47
2018-09-09T04:19:24.301Z,97.76
2018-09-09T04:20:24.282Z,97.95
2018-09-09T04:21:24.265Z,98.14
2018-09-09T04:22:24.257Z,97.85
2018-09-09T04:23:24.241Z,98.52
2018-09-09T04:24:24.223Z,98.14
2018-09-09T04:25:24.206Z,97.76
2018-09-09T04:26:24.193Z,97.66
2018-09-09T04:27:24.180Z,97.76
2018-09-09T04:28:24.164Z,97.56
2018-09-09T04:29:24.150Z,97.38
2018-09-09T04:30:24.141Z,97.56
2018-09-09T04:31:24.123Z,97.09
2018-09-09T04:32:24.107Z,97.18
2018-09-09T04:33:24.096Z,97.76
2018-09-09T04:34:24.086Z,97.85
2018-09-09T04:35:24.067Z,97.56
2018-09-09T04:36:24.051Z,97.18
2018-09-09T04:37:24.038Z,96.99
2018-09-09T04:38:24.027Z,97.38
2018-09-09T04:39:24.009Z,97.38
2018-09-09T04:40:23.994Z,98.05
2018-09-09T04:41:23.980Z,97.56
2018-09-09T04:42:23.969Z,97.28
2018-09-09T04:43:23.950Z,97.47
2018-09-09T04:44:23.937Z,97.28
2018-09-09T04:45:23.924Z,97.76
2018-09-09T04:46:24.054Z,98.05
2018-09-09T04:47:23.893Z,98.05
2018-09-09T04:48:23.879Z,98.19
2018-09-09T04:49:23.865Z,98.76
2018-09-09T04:50:23.858Z,98.38
2018-09-09T04:51:23.837Z,98.76
2018-09-09T04:52:23.824Z,98.72
2018-09-09T04:53:23.813Z,98.24
2018-09-09T04:54:23.799Z,97.95
2018-09-09T04:55:23.785Z,98.14
2018-09-09T04:56:23.766Z,97.90
2018-09-09T04:57:23.751Z,98.24
2018-09-09T04:58:23.738Z,98.24
2018-09-09T04:59:23.723Z,98.76
2018-09-09T05:00:23.711Z,98.76
2018-09-09T05:01:23.765Z,98.67
2018-09-09T05:02:23.681Z,98.86
2018-09-09T05:03:23.672Z,98.57
2018-09-09T05:04:23.651Z,98.96
2018-09-09T05:05:23.641Z,98.86
2018-09-09T05:06:23.627Z,98.47
2018-09-09T05:07:23.610Z,98.86
2018-09-09T05:08:23.600Z,98.67
2018-09-09T05:09:23.583Z,98.96
2018-09-09T05:10:23.569Z,98.72
2018-09-09T05:11:23.556Z,98.76
2018-09-09T05:12:23.537Z,98.96
2018-09-09T05:13:23.542Z,98.76
2018-09-09T05:14:23.512Z,98.96
2018-09-09T05:15:23.496Z,98.76
2018-09-09T05:16:23.480Z,98.67
2018-09-09T05:17:23.466Z,99.15
2018-09-09T05:18:23.451Z,99.34
2018-09-09T05:19:23.449Z,98.96
2018-09-09T05:20:23.426Z,98.67
2018-09-09T05:21:23.408Z,98.91
2018-09-09T05:22:23.395Z,98.43
2018-09-09T05:23:23.390Z,99.10
2018-09-09T05:24:23.364Z,98.14
2018-09-09T05:25:23.351Z,98.43
2018-09-09T05:26:23.337Z,98.05
2018-09-09T05:27:23.327Z,98.33
2018-09-09T05:28:23.308Z,98.05
2018-09-09T05:29:23.294Z,97.85
2018-09-09T05:30:23.284Z,97.95
2018-09-09T05:31:23.272Z,97.85
2018-09-09T05:32:23.258Z,97.85
2018-09-09T05:33:23.245Z,98.72
2018-09-09T05:34:23.227Z,99.01
2018-09-09T05:35:23.214Z,98.72
2018-09-09T05:36:23.197Z,99.01
2018-09-09T05:37:23.186Z,99.01
2018-09-09T05:38:23.171Z,99.01
2018-09-09T05:39:23.155Z,99.01
2018-09-09T05:40:23.140Z,99.10
2018-09-09T05:41:23.131Z,98.62
2018-09-09T05:42:23.173Z,99.01
2018-09-09T05:43:23.105Z,98.72
2018-09-09T05:44:23.082Z,98.81
2018-09-09T05:45:23.069Z,99.01
2018-09-09T05:46:23.057Z,99.01
2018-09-09T05:47:23.042Z,98.72
2018-09-09T05:48:23.027Z,98.86
2018-09-09T05:49:23.011Z,98.76
2018-09-09T05:50:22.998Z,99.05
2018-09-09T05:51:22.993Z,99.15
2018-09-09T05:52:22.972Z,98.86
2018-09-09T05:53:22.965Z,99.99
2018-09-09T05:54:22.951Z,99.72
2018-09-09T05:55:22.927Z,99.91
2018-09-09T05:56:22.912Z,99.53
2018-09-09T05:57:22.911Z,99.34
2018-09-09T05:58:22.884Z,99.68
2018-09-09T05:59:22.870Z,98.91
2018-09-09T06:00:22.855Z,99.01
2018-09-09T06:01:22.844Z,98.91
2018-09-09T06:02:22.828Z,98.72
2018-09-09T06:03:22.818Z,99.39
2018-09-09T06:04:22.797Z,99.10
2018-09-09T06:05:22.784Z,99.39
2018-09-09T06:06:22.773Z,99.10
2018-09-09T06:07:22.755Z,98.62
2018-09-09T06:08:22.742Z,98.52
2018-09-09T06:09:22.730Z,98.72
2018-09-09T06:10:22.717Z,98.72
2018-09-09T06:11:22.709Z,98.62
2018-09-09T06:12:22.684Z,98.62
2018-09-09T06:13:22.669Z,98.05
2018-09-09T06:14:22.655Z,98.24
2018-09-09T06:15:22.643Z,98.33
2018-09-09T06:16:22.627Z,98.14
2018-09-09T06:17:22.614Z,98.14
2018-09-09T06:18:22.600Z,98.24
2018-09-09T06:19:22.590Z,98.52
2018-09-09T06:20:22.572Z,98.43
2018-09-09T06:21:22.557Z,98.24
2018-09-09T06:22:22.545Z,98.33
2018-09-09T06:23:22.530Z,98.38
2018-09-09T06:24:22.518Z,97.47
2018-09-09T06:25:22.511Z,97.71
2018-09-09T06:26:22.489Z,98.00
2018-09-09T06:27:22.476Z,98.00
2018-09-09T06:28:22.569Z,98.10
2018-09-09T06:29:22.452Z,97.52
2018-09-09T06:30:22.433Z,97.61
2018-09-09T06:31:22.428Z,96.94
2018-09-09T06:32:22.407Z,96.37
2018-09-09T06:33:22.393Z,95.60
2018-09-09T06:34:22.381Z,95.65
2018-09-09T06:35:22.405Z,95.84
2018-09-09T06:36:22.350Z,95.65
2018-09-09T06:37:22.335Z,94.69
2018-09-09T06:38:22.326Z,93.15
2018-09-09T06:39:22.307Z,93.73
2018-09-09T06:40:22.297Z,92.96
2018-09-09T06:41:22.282Z,93.35
2018-09-09T06:42:22.269Z,93.15
2018-09-09T06:43:22.267Z,92.48
2018-09-09T06:44:22.240Z,92.58
2018-09-09T06:45:22.232Z,92.19
2018-09-09T06:46:22.256Z,91.42
2018-09-09T06:47:22.203Z,91.57
2018-09-09T06:48:22.189Z,91.28
2018-09-09T06:49:22.183Z,91.47
2018-09-09T06:50:22.162Z,90.70
2018-09-09T06:51:22.192Z,90.42
2018-09-09T06:52:22.135Z,89.65
2018-09-09T06:53:22.123Z,89.12
2018-09-09T06:54:22.108Z,88.35
2018-09-09T06:55:22.146Z,87.96
2018-09-09T06:56:22.084Z,87.39
2018-09-09T06:57:22.073Z,86.28
2018-09-09T06:58:22.061Z,84.69
2018-09-09T06:59:22.052Z,83.83
2018-09-09T07:00:22.035Z,82.57
2018-09-09T07:01:22.023Z,81.56
2018-09-09T07:02:22.117Z,78.94
2018-09-09T07:03:22.002Z,75.90
2018-09-09T07:04:21.992Z,75.67
2018-09-09T07:05:21.978Z,76.01
2018-09-09T07:06:21.969Z,76.78
2018-09-09T07:07:21.967Z,76.25
2018-09-09T07:08:21.946Z,73.14
2018-09-09T07:09:21.937Z,70.38
2018-09-09T07:10:21.933Z,69.93
2018-09-09T07:11:22.015Z,73.30
2018-09-09T07:12:21.914Z,70.96
2018-09-09T07:13:21.905Z,67.62
2018-09-09T07:14:21.896Z,66.88
2018-09-09T07:15:21.891Z,66.75
2018-09-09T07:16:21.880Z,67.97
2018-09-09T07:17:21.881Z,69.48
2018-09-09T07:18:21.866Z,70.35
2018-09-09T07:19:21.855Z,71.28
2018-09-09T07:20:21.847Z,71.37
2018-09-09T07:21:21.842Z,70.15
2018-09-09T07:22:21.835Z,69.96
2018-09-09T07:23:21.828Z,68.26
2018-09-09T07:24:21.816Z,68.10
2018-09-09T07:25:21.812Z,66.30
2018-09-09T07:26:21.799Z,66.30
2018-09-09T07:27:21.795Z,66.01
2018-09-09T07:28:21.819Z,65.88
2018-09-09T07:29:21.779Z,67.30
2018-09-09T07:30:21.771Z,67.49
2018-09-09T07:31:21.765Z,67.43
2018-09-09T07:32:21.756Z,66.36
2018-09-09T07:33:21.754Z,66.36
2018-09-09T07:34:21.861Z,66.85
2018-09-09T07:35:21.733Z,67.00
2018-09-09T07:36:21.728Z,67.33
2018-09-09T07:37:21.749Z,67.10
2018-09-09T07:38:21.711Z,68.10
2018-09-09T07:39:21.710Z,68.07
2018-09-09T07:40:21.694Z,68.16
2018-09-09T07:41:21.685Z,68.61
2018-09-09T07:42:21.678Z,70.12
2018-09-09T07:43:21.671Z,71.37
2018-09-09T07:44:21.660Z,71.81
2018-09-09T07:45:21.654Z,71.56
2018-09-09T07:46:21.695Z,72.05
2018-09-09T07:47:21.645Z,70.98
2018-09-09T07:48:21.629Z,71.62
2018-09-09T07:49:21.621Z,72.59
2018-09-09T07:50:21.639Z,73.07
2018-09-09T07:51:21.600Z,72.97
2018-09-09T07:52:21.590Z,72.88
2018-09-09T07:53:21.581Z,72.11
2018-09-09T07:54:21.571Z,73.61
2018-09-09T07:55:21.568Z,73.61
2018-09-09T07:56:21.590Z,74.57
2018-09-09T07:57:21.543Z,74.67
2018-09-09T07:58:21.532Z,75.05
2018-09-09T07:59:21.525Z,75.54
2018-09-09T08:00:21.527Z,75.44
2018-09-09T08:01:21.500Z,75.63
2018-09-09T08:02:21.490Z,75.73
2018-09-09T08:03:21.481Z,77.56
2018-09-09T08:04:21.473Z,77.08
2018-09-09T08:05:21.461Z,77.26
2018-09-09T08:06:21.446Z,75.73
2018-09-09T08:07:21.435Z,76.21
2018-09-09T08:08:21.431Z,76.50
2018-09-09T08:09:21.414Z,76.21
2018-09-09T08:10:21.404Z,75.73
2018-09-09T08:11:21.398Z,75.92
2018-09-09T08:12:21.385Z,75.92
2018-09-09T08:13:21.370Z,75.73
2018-09-09T08:14:21.364Z,75.73
2018-09-09T08:15:21.352Z,75.92
2018-09-09T08:16:21.337Z,75.63
2018-09-09T08:17:21.333Z,75.82
2018-09-09T08:18:21.380Z,75.48
2018-09-09T08:19:21.303Z,76.25
2018-09-09T08:20:21.291Z,75.09
2018-09-09T08:21:21.282Z,75.09
2018-09-09T08:22:21.269Z,75.28
2018-09-09T08:23:21.260Z,75.19
2018-09-09T08:24:21.253Z,75.09
2018-09-09T08:25:21.238Z,74.76
2018-09-09T08:26:21.234Z,74.96
2018-09-09T08:27:21.216Z,75.15
2018-09-09T08:28:21.205Z,75.44
2018-09-09T08:29:21.192Z,76.01
2018-09-09T08:30:21.187Z,75.82
2018-09-09T08:31:21.171Z,75.24
2018-09-09T08:32:21.154Z,75.44
2018-09-09T08:33:21.147Z,75.63
2018-09-09T08:34:21.136Z,74.96
2018-09-09T08:35:21.124Z,75.44
2018-09-09T08:36:21.114Z,75.73
2018-09-09T08:37:21.105Z,75.44
2018-09-09T08:38:21.088Z,74.86
2018-09-09T08:39:21.081Z,75.73
2018-09-09T08:40:21.067Z,74.67
2018-09-09T08:41:21.054Z,74.99
2018-09-09T08:42:21.043Z,74.71
2018-09-09T08:43:21.032Z,72.81
2018-09-09T08:44:21.024Z,71.85
2018-09-09T08:45:21.068Z,71.66
2018-09-09T08:46:21.000Z,70.89
2018-09-09T08:47:20.990Z,71.50
2018-09-09T08:48:20.976Z,70.06
2018-09-09T08:49:20.977Z,69.03
2018-09-09T08:50:20.960Z,68.26
2018-09-09T08:51:20.946Z,67.81
2018-09-09T08:52:20.938Z,66.69
2018-09-09T08:53:20.926Z,66.69
2018-09-09T08:54:20.920Z,64.79
2018-09-09T08:55:20.908Z,64.50
2018-09-09T08:56:20.904Z,63.63
2018-09-09T08:57:20.886Z,63.79
2018-09-09T08:58:20.877Z,63.24
2018-09-09T08:59:20.877Z,63.12
2018-09-09T09:00:20.859Z,63.53
2018-09-09T09:01:20.848Z,60.92
2018-09-09T09:02:20.840Z,59.66
2018-09-09T09:03:20.833Z,59.92
2018-09-09T09:04:20.829Z,59.25
2018-09-09T09:05:20.814Z,58.76
2018-09-09T09:06:20.811Z,58.98
2018-09-09T09:07:20.812Z,57.82
2018-09-09T09:08:20.795Z,59.08
2018-09-09T09:09:20.785Z,58.72
2018-09-09T09:10:20.779Z,57.01
2018-09-09T09:11:20.769Z,58.04
2018-09-09T09:12:20.759Z,58.27
2018-09-09T09:13:20.753Z,56.82
2018-09-09T09:14:20.743Z,57.08
2018-09-09T09:15:20.738Z,56.60
2018-09-09T09:16:20.729Z,56.60
2018-09-09T09:17:20.725Z,56.98
2018-09-09T09:18:20.716Z,58.21
2018-09-09T09:19:20.711Z,58.21
2018-09-09T09:20:20.703Z,59.21
2018-09-09T09:21:20.692Z,57.44
2018-09-09T09:22:20.684Z,57.76
2018-09-09T09:23:20.680Z,57.56
2018-09-09T09:24:20.693Z,57.66
2018-09-09T09:25:20.664Z,56.79
2018-09-09T09:26:20.656Z,56.30
2018-09-09T09:27:20.649Z,55.92
2018-09-09T09:28:20.639Z,55.46
2018-09-09T09:29:20.634Z,54.81
2018-09-09T09:30:20.633Z,54.64
2018-09-09T09:31:20.619Z,53.58
2018-09-09T09:32:20.614Z,53.75
2018-09-09T09:33:20.603Z,54.81
2018-09-09T09:34:20.658Z,54.81
2018-09-09T09:35:20.599Z,54.62
2018-09-09T09:36:20.587Z,54.43
2018-09-09T09:37:20.576Z,54.52
2018-09-09T09:38:20.573Z,54.39
2018-09-09T09:39:20.597Z,54.88
2018-09-09T09:40:20.558Z,54.39
2018-09-09T09:41:20.549Z,55.73
2018-09-09T09:42:20.541Z,55.73
2018-09-09T09:43:20.543Z,56.57
2018-09-09T09:44:20.532Z,57.03
2018-09-09T09:45:20.520Z,57.51
2018-09-09T09:46:20.513Z,57.44
2018-09-09T09:47:20.519Z,57.05
2018-09-09T09:48:20.495Z,56.67
2018-09-09T09:49:20.489Z,56.28
2018-09-09T09:50:20.482Z,56.60
2018-09-09T09:51:20.476Z,56.09
2018-09-09T09:52:20.468Z,56.70
2018-09-09T09:53:20.580Z,56.30
2018-09-09T09:54:20.452Z,56.47
2018-09-09T09:55:20.488Z,56.09
2018-09-09T09:56:20.434Z,56.76
2018-09-09T09:57:20.428Z,56.67
2018-09-09T09:58:20.418Z,57.09
2018-09-09T09:59:20.414Z,57.57
2018-09-09T10:00:20.405Z,58.15
2018-09-09T10:01:20.395Z,58.09
2018-09-09T10:02:20.385Z,58.09
2018-09-09T10:03:20.381Z,57.79
2018-09-09T10:04:20.368Z,57.89
2018-09-09T10:05:20.360Z,58.28
2018-09-09T10:06:20.352Z,57.70
2018-09-09T10:07:20.345Z,58.18
2018-09-09T10:08:20.336Z,58.54
2018-09-09T10:09:20.328Z,58.73
2018-09-09T10:10:20.323Z,58.83
2018-09-09T10:11:20.318Z,59.58
2018-09-09T10:12:20.303Z,60.25
2018-09-09T10:13:20.297Z,60.09
2018-09-09T10:14:20.296Z,60.09
2018-09-09T10:15:20.276Z,59.22
2018-09-09T10:16:20.271Z,59.12
2018-09-09T10:17:20.270Z,58.83
2018-09-09T10:18:20.255Z,58.45
2018-09-09T10:19:20.243Z,59.22
2018-09-09T10:20:20.239Z,59.02
2018-09-09T10:21:20.227Z,58.95
2018-09-09T10:22:20.219Z,58.45
2018-09-09T10:23:20.208Z,59.51
2018-09-09T10:24:20.199Z,58.18
2018-09-09T10:25:20.191Z,57.73
2018-09-09T10:26:20.183Z,57.73
2018-09-09T10:27:20.173Z,57.63
2018-09-09T10:28:20.169Z,57.63
2018-09-09T10:29:20.170Z,57.56
2018-09-09T10:30:20.152Z,56.98
2018-09-09T10:31:20.139Z,56.57
2018-09-09T10:32:20.131Z,57.05
2018-09-09T10:33:20.122Z,57.70
2018-09-09T10:34:20.114Z,57.54
2018-09-09T10:35:20.108Z,57.76
2018-09-09T10:36:20.096Z,55.94
2018-09-09T10:37:20.090Z,55.66
2018-09-09T10:38:20.081Z,55.56
2018-09-09T10:39:20.074Z,55.00
2018-09-09T10:40:20.062Z,54.45
2018-09-09T10:41:20.058Z,53.65
2018-09-09T10:42:20.052Z,53.49
2018-09-09T10:43:20.046Z,53.41
2018-09-09T10:44:20.032Z,52.15
2018-09-09T10:45:20.026Z,51.18
2018-09-09T10:46:20.139Z,51.21
2018-09-09T10:47:20.015Z,51.28
2018-09-09T10:48:20.004Z,51.96
2018-09-09T10:49:20.005Z,51.67
2018-09-09T10:50:19.986Z,51.57
2018-09-09T10:51:19.983Z,51.86
2018-09-09T10:52:19.972Z,51.76
2018-09-09T10:53:19.965Z,52.29
2018-09-09T10:54:19.959Z,52.90
2018-09-09T10:55:19.954Z,52.93
2018-09-09T10:56:19.942Z,52.06
2018-09-09T10:57:19.936Z,50.82
2018-09-09T10:58:19.926Z,50.16
2018-09-09T10:59:19.919Z,49.95
2018-09-09T11:00:19.914Z,50.09
2018-09-09T11:01:19.905Z,49.02
2018-09-09T11:02:19.903Z,48.18
2018-09-09T11:03:19.891Z,48.35
2018-09-09T11:04:19.884Z,48.25
2018-09-09T11:05:19.878Z,48.37
2018-09-09T11:06:19.870Z,48.37
2018-09-09T11:07:19.863Z,47.88
2018-09-09T11:08:19.862Z,48.47
2018-09-09T11:09:19.851Z,48.66
2018-09-09T11:10:19.843Z,48.27
2018-09-09T11:11:19.835Z,47.76
2018-09-09T11:12:19.829Z,47.66
2018-09-09T11:13:19.827Z,47.64
2018-09-09T11:14:19.814Z,48.00
2018-09-09T11:15:19.809Z,48.57
2018-09-09T11:16:19.807Z,49.02
2018-09-09T11:17:19.798Z,49.44
2018-09-09T11:18:19.787Z,49.54
2018-09-09T11:19:19.796Z,50.31
2018-09-09T11:20:19.777Z,49.90
2018-09-09T11:21:19.774Z,49.32
2018-09-09T11:22:19.763Z,49.99
2018-09-09T11:23:19.760Z,50.09
2018-09-09T11:24:19.785Z,49.80
2018-09-09T11:25:19.745Z,49.80
2018-09-09T11:26:19.730Z,50.19
2018-09-09T11:27:19.730Z,49.61
2018-09-09T11:28:19.724Z,50.07
2018-09-09T11:29:19.710Z,51.42
2018-09-09T11:30:19.698Z,51.90
2018-09-09T11:31:19.708Z,50.19
2018-09-09T11:32:19.681Z,50.07
2018-09-09T11:33:19.675Z,51.54
2018-09-09T11:34:19.678Z,50.79
2018-09-09T11:35:19.663Z,50.48
2018-09-09T11:36:19.685Z,50.31
2018-09-09T11:37:19.649Z,49.46
2018-09-09T11:38:19.639Z,49.75
2018-09-09T11:39:19.640Z,48.88
2018-09-09T11:40:19.624Z,49.44
2018-09-09T11:41:19.614Z,50.26
2018-09-09T11:42:19.613Z,51.32
2018-09-09T11:43:19.613Z,51.72
2018-09-09T11:44:19.599Z,51.81
2018-09-09T11:45:19.591Z,51.32
2018-09-09T11:46:19.578Z,51.90
2018-09-09T11:47:19.579Z,51.72
2018-09-09T11:48:19.569Z,52.87
2018-09-09T11:49:19.556Z,52.78
2018-09-09T11:50:19.552Z,52.10
2018-09-09T11:51:19.546Z,51.72
2018-09-09T11:52:19.530Z,51.74
2018-09-09T11:53:19.626Z,51.74
2018-09-09T11:54:19.518Z,51.25
2018-09-09T11:55:19.508Z,51.06
2018-09-09T11:56:19.504Z,51.74
2018-09-09T11:57:19.492Z,50.21
2018-09-09T11:58:19.482Z,49.15
2018-09-09T11:59:19.483Z,48.39
2018-09-09T12:00:19.467Z,48.22
2018-09-09T12:01:19.460Z,47.83
2018-09-09T12:02:19.454Z,47.57
2018-09-09T12:03:19.457Z,47.66
2018-09-09T12:04:19.440Z,47.28
2018-09-09T12:05:19.431Z,47.59
2018-09-09T12:06:19.425Z,47.32
2018-09-09T12:07:19.427Z,47.03
2018-09-09T12:08:19.406Z,46.45
2018-09-09T12:09:19.400Z,46.60
2018-09-09T12:10:19.396Z,46.62
2018-09-09T12:11:19.391Z,47.01
2018-09-09T12:12:19.379Z,47.32
2018-09-09T12:13:19.370Z,46.35
2018-09-09T12:14:19.374Z,45.38
2018-09-09T12:15:19.361Z,45.01
2018-09-09T12:16:19.348Z,44.62
2018-09-09T12:17:19.346Z,44.43
2018-09-09T12:18:19.356Z,45.11
2018-09-09T12:19:19.332Z,45.23
2018-09-09T12:20:19.338Z,44.70
2018-09-09T12:21:19.321Z,46.04
2018-09-09T12:22:19.308Z,46.11
2018-09-09T12:23:19.303Z,46.50
2018-09-09T12:24:19.305Z,47.18
2018-09-09T12:25:19.290Z,47.20
2018-09-09T12:26:19.286Z,47.69
2018-09-09T12:27:19.274Z,47.66
2018-09-09T12:28:19.265Z,47.96
2018-09-09T12:29:19.270Z,47.86
2018-09-09T12:30:19.257Z,48.08
2018-09-09T12:31:19.245Z,48.18
2018-09-09T12:32:19.326Z,47.23
2018-09-09T12:33:19.234Z,46.74
2018-09-09T12:34:19.226Z,47.59
2018-09-09T12:35:19.217Z,47.69
2018-09-09T12:36:19.210Z,47.61
2018-09-09T12:37:19.209Z,47.69
2018-09-09T12:38:19.197Z,46.81
2018-09-09T12:39:19.189Z,46.64
2018-09-09T12:40:19.181Z,47.01
2018-09-09T12:41:19.178Z,47.69
2018-09-09T12:42:19.183Z,47.49
2018-09-09T12:43:19.160Z,47.49
2018-09-09T12:44:19.153Z,47.81
2018-09-09T12:45:19.145Z,45.87
2018-09-09T12:46:19.140Z,44.62
2018-09-09T12:47:19.284Z,45.14
2018-09-09T12:48:19.127Z,45.42
2018-09-09T12:49:19.133Z,44.16
2018-09-09T12:50:19.114Z,43.11
2018-09-09T12:51:19.112Z,42.50
2018-09-09T12:52:19.097Z,42.90